sensor_id;sensor_type;location;lat;lon;timestamp;temperature;humidity
1546;DHT22;766;51.502;9.752;2023-03-14T00:02:15;10.00;99.90
1546;DHT22;766;51.502;9.752;2023-03-14T00:04:44;10.00;99.90
1546;DHT22;766;51.502;9.752;2023-03-14T00:07:13;10.00;99.90
1546;DHT22;766;51.502;9.752;2023-03-14T00:09:44;9.90;99.90
1546;DHT22;766;51.502;9.752;2023-03-14T00:12:12;9.90;99.90
1546;DHT22;766;51.502;9.752;2023-03-14T00:14:41;9.90;99.90
1546;DHT22;766;51.502;9.752;2023-03-14T00:17:13;9.90;99.90
1546;DHT22;766;51.502;9.752;2023-03-14T00:19:42;9.90;99.90
1546;DHT22;766;51.502;9.752;2023-03-14T00:22:10;9.90;99.90
1546;DHT22;766;51.502;9.752;2023-03-14T00:24:39;9.90;99.90
1546;DHT22;766;51.502;9.752;2023-03-14T00:27:09;9.80;99.90
1546;DHT22;766;51.502;9.752;2023-03-14T00:29:37;9.80;99.90
1546;DHT22;766;51.502;9.752;2023-03-14T00:32:06;9.80;99.90
1546;DHT22;766;51.502;9.752;2023-03-14T00:34:34;9.80;99.90
1546;DHT22;766;51.502;9.752;2023-03-14T00:37:03;9.80;99.90
1546;DHT22;766;51.502;9.752;2023-03-14T00:39:31;9.70;99.90
1546;DHT22;766;51.502;9.752;2023-03-14T00:42:03;9.80;99.90
1546;DHT22;766;51.502;9.752;2023-03-14T00:44:33;9.80;99.90
1546;DHT22;766;51.502;9.752;2023-03-14T00:47:01;9.80;99.90
1546;DHT22;766;51.502;9.752;2023-03-14T00:49:30;9.90;99.90
1546;DHT22;766;51.502;9.752;2023-03-14T00:52:01;9.90;99.90
1546;DHT22;766;51.502;9.752;2023-03-14T00:54:29;9.80;99.90
1546;DHT22;766;51.502;9.752;2023-03-14T00:56:58;9.80;99.90
1546;DHT22;766;51.502;9.752;2023-03-14T00:59:27;9.80;99.90
1546;DHT22;766;51.502;9.752;2023-03-14T01:01:57;9.70;99.90
1546;DHT22;766;51.502;9.752;2023-03-14T01:04:26;9.70;99.90
1546;DHT22;766;51.502;9.752;2023-03-14T01:06:55;9.70;99.90
1546;DHT22;766;51.502;9.752;2023-03-14T01:09:23;9.70;99.90
1546;DHT22;766;51.502;9.752;2023-03-14T01:11:51;9.60;99.90
1546;DHT22;766;51.502;9.752;2023-03-14T01:14:20;9.60;99.90
1546;DHT22;766;51.502;9.752;2023-03-14T01:16:48;9.70;99.90
1546;DHT22;766;51.502;9.752;2023-03-14T01:19:18;9.60;99.90
1546;DHT22;766;51.502;9.752;2023-03-14T01:21:46;9.70;99.90
1546;DHT22;766;51.502;9.752;2023-03-14T01:24:15;9.60;99.90
1546;DHT22;766;51.502;9.752;2023-03-14T01:26:43;9.60;99.90
1546;DHT22;766;51.502;9.752;2023-03-14T01:29:11;9.60;99.90
1546;DHT22;766;51.502;9.752;2023-03-14T01:31:40;9.50;99.90
1546;DHT22;766;51.502;9.752;2023-03-14T01:34:08;9.50;99.90
1546;DHT22;766;51.502;9.752;2023-03-14T01:36:38;9.50;99.90
1546;DHT22;766;51.502;9.752;2023-03-14T01:39:07;9.40;99.90
1546;DHT22;766;51.502;9.752;2023-03-14T01:41:36;9.40;99.90
1546;DHT22;766;51.502;9.752;2023-03-14T01:44:05;9.40;99.90
1546;DHT22;766;51.502;9.752;2023-03-14T01:46:37;9.50;99.90
1546;DHT22;766;51.502;9.752;2023-03-14T01:49:11;9.50;99.90
1546;DHT22;766;51.502;9.752;2023-03-14T01:51:46;9.50;99.90
1546;DHT22;766;51.502;9.752;2023-03-14T01:54:19;9.50;99.90
1546;DHT22;766;51.502;9.752;2023-03-14T01:56:53;9.40;99.90
1546;DHT22;766;51.502;9.752;2023-03-14T01:59:24;9.40;99.90
1546;DHT22;766;51.502;9.752;2023-03-14T02:01:57;9.30;99.90
1546;DHT22;766;51.502;9.752;2023-03-14T02:04:29;9.30;99.90
1546;DHT22;766;51.502;9.752;2023-03-14T02:07:06;9.30;99.90
1546;DHT22;766;51.502;9.752;2023-03-14T02:09:38;9.30;99.90
1546;DHT22;766;51.502;9.752;2023-03-14T02:12:08;9.30;99.90
1546;DHT22;766;51.502;9.752;2023-03-14T02:14:38;9.30;99.90
1546;DHT22;766;51.502;9.752;2023-03-14T02:17:07;9.30;99.90
1546;DHT22;766;51.502;9.752;2023-03-14T02:20:03;9.30;99.90
1546;DHT22;766;51.502;9.752;2023-03-14T02:22:34;9.20;99.90
1546;DHT22;766;51.502;9.752;2023-03-14T02:25:07;9.20;99.90
1546;DHT22;766;51.502;9.752;2023-03-14T02:27:39;9.30;99.90
1546;DHT22;766;51.502;9.752;2023-03-14T02:30:11;9.30;99.90
1546;DHT22;766;51.502;9.752;2023-03-14T02:32:42;9.20;99.90
1546;DHT22;766;51.502;9.752;2023-03-14T02:35:13;9.30;99.90
1546;DHT22;766;51.502;9.752;2023-03-14T02:37:46;9.30;99.90
1546;DHT22;766;51.502;9.752;2023-03-14T02:40:16;9.30;99.90
1546;DHT22;766;51.502;9.752;2023-03-14T02:42:46;9.20;99.90
1546;DHT22;766;51.502;9.752;2023-03-14T02:45:35;9.20;99.90
1546;DHT22;766;51.502;9.752;2023-03-14T02:48:07;9.20;99.90
1546;DHT22;766;51.502;9.752;2023-03-14T02:50:37;9.20;99.90
1546;DHT22;766;51.502;9.752;2023-03-14T02:53:06;9.20;99.90
1546;DHT22;766;51.502;9.752;2023-03-14T02:55:35;9.20;99.90
1546;DHT22;766;51.502;9.752;2023-03-14T02:58:04;9.20;99.90
1546;DHT22;766;51.502;9.752;2023-03-14T03:00:32;9.20;99.90
1546;DHT22;766;51.502;9.752;2023-03-14T03:03:01;9.30;99.90
1546;DHT22;766;51.502;9.752;2023-03-14T03:05:29;9.20;99.90
1546;DHT22;766;51.502;9.752;2023-03-14T03:07:57;9.10;99.90
1546;DHT22;766;51.502;9.752;2023-03-14T03:10:26;9.10;99.90
1546;DHT22;766;51.502;9.752;2023-03-14T03:12:55;9.10;99.90
1546;DHT22;766;51.502;9.752;2023-03-14T03:15:25;9.00;99.90
1546;DHT22;766;51.502;9.752;2023-03-14T03:17:53;9.00;99.90
1546;DHT22;766;51.502;9.752;2023-03-14T03:20:21;9.00;99.90
1546;DHT22;766;51.502;9.752;2023-03-14T03:22:49;9.00;99.90
1546;DHT22;766;51.502;9.752;2023-03-14T03:25:18;9.00;99.90
1546;DHT22;766;51.502;9.752;2023-03-14T03:27:46;9.00;99.90
1546;DHT22;766;51.502;9.752;2023-03-14T03:30:15;9.00;99.90
1546;DHT22;766;51.502;9.752;2023-03-14T03:32:46;9.00;99.90
1546;DHT22;766;51.502;9.752;2023-03-14T03:35:15;9.00;99.90
1546;DHT22;766;51.502;9.752;2023-03-14T03:37:45;9.00;99.90
1546;DHT22;766;51.502;9.752;2023-03-14T03:40:14;9.00;99.90
1546;DHT22;766;51.502;9.752;2023-03-14T03:42:43;8.90;99.90
1546;DHT22;766;51.502;9.752;2023-03-14T03:45:11;8.90;99.90
1546;DHT22;766;51.502;9.752;2023-03-14T03:47:41;9.00;99.90
1546;DHT22;766;51.502;9.752;2023-03-14T03:50:12;9.00;99.90
1546;DHT22;766;51.502;9.752;2023-03-14T03:52:40;9.00;99.90
1546;DHT22;766;51.502;9.752;2023-03-14T03:55:09;9.00;99.90
1546;DHT22;766;51.502;9.752;2023-03-14T03:57:37;9.00;99.90
1546;DHT22;766;51.502;9.752;2023-03-14T04:00:07;8.90;99.90
1546;DHT22;766;51.502;9.752;2023-03-14T04:02:38;8.90;99.90
1546;DHT22;766;51.502;9.752;2023-03-14T04:05:07;9.00;99.90
1546;DHT22;766;51.502;9.752;2023-03-14T04:07:37;9.00;99.90
1546;DHT22;766;51.502;9.752;2023-03-14T04:10:06;9.00;99.90
1546;DHT22;766;51.502;9.752;2023-03-14T04:12:35;9.00;99.90
1546;DHT22;766;51.502;9.752;2023-03-14T04:15:04;9.00;99.90
1546;DHT22;766;51.502;9.752;2023-03-14T04:17:33;9.00;99.90
1546;DHT22;766;51.502;9.752;2023-03-14T04:20:01;9.00;99.90
1546;DHT22;766;51.502;9.752;2023-03-14T04:22:31;8.90;99.90
1546;DHT22;766;51.502;9.752;2023-03-14T04:25:01;8.90;99.90
1546;DHT22;766;51.502;9.752;2023-03-14T04:27:30;8.90;99.90
1546;DHT22;766;51.502;9.752;2023-03-14T04:29:59;8.80;99.90
1546;DHT22;766;51.502;9.752;2023-03-14T04:32:27;8.80;99.90
1546;DHT22;766;51.502;9.752;2023-03-14T04:34:55;8.80;99.90
1546;DHT22;766;51.502;9.752;2023-03-14T04:37:24;8.80;99.90
1546;DHT22;766;51.502;9.752;2023-03-14T04:39:52;8.80;99.90
1546;DHT22;766;51.502;9.752;2023-03-14T04:42:22;8.70;99.90
1546;DHT22;766;51.502;9.752;2023-03-14T04:44:50;8.70;99.90
1546;DHT22;766;51.502;9.752;2023-03-14T04:47:18;8.70;99.90
1546;DHT22;766;51.502;9.752;2023-03-14T04:49:47;8.60;99.90
1546;DHT22;766;51.502;9.752;2023-03-14T04:52:15;8.60;99.90
1546;DHT22;766;51.502;9.752;2023-03-14T04:54:44;8.60;99.90
1546;DHT22;766;51.502;9.752;2023-03-14T04:57:13;8.50;99.90
1546;DHT22;766;51.502;9.752;2023-03-14T04:59:43;8.50;99.90
1546;DHT22;766;51.502;9.752;2023-03-14T05:02:11;8.50;99.90
1546;DHT22;766;51.502;9.752;2023-03-14T05:04:39;8.50;99.90
1546;DHT22;766;51.502;9.752;2023-03-14T05:07:08;8.50;99.90
1546;DHT22;766;51.502;9.752;2023-03-14T05:09:36;8.50;99.90
1546;DHT22;766;51.502;9.752;2023-03-14T05:12:04;8.50;99.90
1546;DHT22;766;51.502;9.752;2023-03-14T05:14:33;8.50;99.90
1546;DHT22;766;51.502;9.752;2023-03-14T05:17:03;8.50;99.90
1546;DHT22;766;51.502;9.752;2023-03-14T05:19:31;8.60;99.90
1546;DHT22;766;51.502;9.752;2023-03-14T05:22:02;8.60;99.90
1546;DHT22;766;51.502;9.752;2023-03-14T05:24:30;8.60;99.90
1546;DHT22;766;51.502;9.752;2023-03-14T05:27:02;8.60;99.90
1546;DHT22;766;51.502;9.752;2023-03-14T05:29:30;8.60;99.90
1546;DHT22;766;51.502;9.752;2023-03-14T05:31:59;8.70;99.90
1546;DHT22;766;51.502;9.752;2023-03-14T05:34:28;8.60;99.90
1546;DHT22;766;51.502;9.752;2023-03-14T05:36:56;8.50;99.90
1546;DHT22;766;51.502;9.752;2023-03-14T05:39:24;8.50;99.90
1546;DHT22;766;51.502;9.752;2023-03-14T05:41:53;8.50;99.90
1546;DHT22;766;51.502;9.752;2023-03-14T05:44:23;8.40;99.90
1546;DHT22;766;51.502;9.752;2023-03-14T05:46:51;8.40;99.90
1546;DHT22;766;51.502;9.752;2023-03-14T05:49:19;8.40;99.90
1546;DHT22;766;51.502;9.752;2023-03-14T05:51:49;8.50;99.90
1546;DHT22;766;51.502;9.752;2023-03-14T05:54:17;8.50;99.90
1546;DHT22;766;51.502;9.752;2023-03-14T05:56:46;8.40;99.90
1546;DHT22;766;51.502;9.752;2023-03-14T05:59:14;8.50;99.90
1546;DHT22;766;51.502;9.752;2023-03-14T06:01:42;8.50;99.90
1546;DHT22;766;51.502;9.752;2023-03-14T06:04:15;8.50;99.90
1546;DHT22;766;51.502;9.752;2023-03-14T06:07:09;8.50;99.90
1546;DHT22;766;51.502;9.752;2023-03-14T06:09:37;8.60;99.90
1546;DHT22;766;51.502;9.752;2023-03-14T06:12:06;8.60;99.90
1546;DHT22;766;51.502;9.752;2023-03-14T06:14:35;8.50;99.90
1546;DHT22;766;51.502;9.752;2023-03-14T06:17:06;8.50;99.90
1546;DHT22;766;51.502;9.752;2023-03-14T06:19:35;8.60;99.90
1546;DHT22;766;51.502;9.752;2023-03-14T06:22:03;8.60;99.90
1546;DHT22;766;51.502;9.752;2023-03-14T06:24:33;8.60;99.90
1546;DHT22;766;51.502;9.752;2023-03-14T06:27:01;8.60;99.90
1546;DHT22;766;51.502;9.752;2023-03-14T06:29:30;8.70;99.90
1546;DHT22;766;51.502;9.752;2023-03-14T06:31:58;8.70;99.90
1546;DHT22;766;51.502;9.752;2023-03-14T06:34:27;8.70;99.90
1546;DHT22;766;51.502;9.752;2023-03-14T06:36:57;8.70;99.90
1546;DHT22;766;51.502;9.752;2023-03-14T06:39:25;8.70;99.90
1546;DHT22;766;51.502;9.752;2023-03-14T06:41:55;8.70;99.90
1546;DHT22;766;51.502;9.752;2023-03-14T06:44:23;8.70;99.90
1546;DHT22;766;51.502;9.752;2023-03-14T06:46:51;8.70;99.90
1546;DHT22;766;51.502;9.752;2023-03-14T06:49:20;8.80;99.90
1546;DHT22;766;51.502;9.752;2023-03-14T06:51:48;8.80;99.90
1546;DHT22;766;51.502;9.752;2023-03-14T06:54:17;8.90;99.90
1546;DHT22;766;51.502;9.752;2023-03-14T06:56:45;8.90;99.90
1546;DHT22;766;51.502;9.752;2023-03-14T06:59:15;8.90;99.90
1546;DHT22;766;51.502;9.752;2023-03-14T07:01:44;8.80;99.90
1546;DHT22;766;51.502;9.752;2023-03-14T07:04:12;8.90;99.90
1546;DHT22;766;51.502;9.752;2023-03-14T07:06:41;8.80;99.90
1546;DHT22;766;51.502;9.752;2023-03-14T07:09:11;8.80;99.90
1546;DHT22;766;51.502;9.752;2023-03-14T07:11:40;8.90;99.90
1546;DHT22;766;51.502;9.752;2023-03-14T07:14:08;8.90;99.90
1546;DHT22;766;51.502;9.752;2023-03-14T07:16:38;8.90;99.90
1546;DHT22;766;51.502;9.752;2023-03-14T07:19:10;8.90;99.90
1546;DHT22;766;51.502;9.752;2023-03-14T07:21:39;8.90;99.90
1546;DHT22;766;51.502;9.752;2023-03-14T07:24:07;8.90;99.90
1546;DHT22;766;51.502;9.752;2023-03-14T07:26:36;9.00;99.90
1546;DHT22;766;51.502;9.752;2023-03-14T07:29:04;9.00;99.90
1546;DHT22;766;51.502;9.752;2023-03-14T07:31:33;9.00;99.90
1546;DHT22;766;51.502;9.752;2023-03-14T07:34:03;9.00;99.90
1546;DHT22;766;51.502;9.752;2023-03-14T07:36:31;9.00;99.90
1546;DHT22;766;51.502;9.752;2023-03-14T07:38:59;9.00;99.90
1546;DHT22;766;51.502;9.752;2023-03-14T07:41:28;9.00;99.90
1546;DHT22;766;51.502;9.752;2023-03-14T07:43:56;9.00;99.90
1546;DHT22;766;51.502;9.752;2023-03-14T07:46:25;9.00;99.90
1546;DHT22;766;51.502;9.752;2023-03-14T07:48:54;9.00;99.90
1546;DHT22;766;51.502;9.752;2023-03-14T07:51:24;9.10;99.90
1546;DHT22;766;51.502;9.752;2023-03-14T07:53:53;9.10;99.90
1546;DHT22;766;51.502;9.752;2023-03-14T07:56:22;9.10;99.90
1546;DHT22;766;51.502;9.752;2023-03-14T07:58:50;9.00;99.90
1546;DHT22;766;51.502;9.752;2023-03-14T08:01:19;9.00;99.90
1546;DHT22;766;51.502;9.752;2023-03-14T08:03:47;9.00;99.90
1546;DHT22;766;51.502;9.752;2023-03-14T08:06:16;9.00;99.90
1546;DHT22;766;51.502;9.752;2023-03-14T08:08:46;9.10;99.90
1546;DHT22;766;51.502;9.752;2023-03-14T08:11:15;9.20;99.90
1546;DHT22;766;51.502;9.752;2023-03-14T08:13:43;9.20;99.90
1546;DHT22;766;51.502;9.752;2023-03-14T08:16:16;9.30;99.90
1546;DHT22;766;51.502;9.752;2023-03-14T08:18:45;9.30;99.90
1546;DHT22;766;51.502;9.752;2023-03-14T08:21:14;9.30;99.90
1546;DHT22;766;51.502;9.752;2023-03-14T08:23:42;9.20;99.90
1546;DHT22;766;51.502;9.752;2023-03-14T08:26:12;9.10;99.90
1546;DHT22;766;51.502;9.752;2023-03-14T08:28:40;9.00;99.90
1546;DHT22;766;51.502;9.752;2023-03-14T08:31:09;9.00;99.90
1546;DHT22;766;51.502;9.752;2023-03-14T08:33:38;9.00;99.90
1546;DHT22;766;51.502;9.752;2023-03-14T08:36:07;8.90;99.90
1546;DHT22;766;51.502;9.752;2023-03-14T08:38:35;8.80;99.90
1546;DHT22;766;51.502;9.752;2023-03-14T08:41:04;8.80;99.90
1546;DHT22;766;51.502;9.752;2023-03-14T08:43:34;8.80;99.90
1546;DHT22;766;51.502;9.752;2023-03-14T08:46:03;8.80;99.90
1546;DHT22;766;51.502;9.752;2023-03-14T08:48:31;8.80;99.90
1546;DHT22;766;51.502;9.752;2023-03-14T08:51:04;8.90;99.90
1546;DHT22;766;51.502;9.752;2023-03-14T08:53:36;8.90;99.90
1546;DHT22;766;51.502;9.752;2023-03-14T08:56:05;9.00;99.90
1546;DHT22;766;51.502;9.752;2023-03-14T08:58:38;9.00;99.90
1546;DHT22;766;51.502;9.752;2023-03-14T09:01:09;9.10;99.90
1546;DHT22;766;51.502;9.752;2023-03-14T09:03:37;9.20;99.90
1546;DHT22;766;51.502;9.752;2023-03-14T09:06:08;9.30;99.90
1546;DHT22;766;51.502;9.752;2023-03-14T09:08:37;9.30;99.90
1546;DHT22;766;51.502;9.752;2023-03-14T09:11:07;9.40;99.90
1546;DHT22;766;51.502;9.752;2023-03-14T09:13:37;9.50;99.90
1546;DHT22;766;51.502;9.752;2023-03-14T09:16:06;9.60;99.90
1546;DHT22;766;51.502;9.752;2023-03-14T09:18:36;9.70;99.90
1546;DHT22;766;51.502;9.752;2023-03-14T09:21:04;9.70;99.90
1546;DHT22;766;51.502;9.752;2023-03-14T09:23:33;9.80;99.90
1546;DHT22;766;51.502;9.752;2023-03-14T09:26:01;10.00;99.90
1546;DHT22;766;51.502;9.752;2023-03-14T09:28:33;10.00;99.90
1546;DHT22;766;51.502;9.752;2023-03-14T09:31:07;10.20;99.90
1546;DHT22;766;51.502;9.752;2023-03-14T09:33:36;10.20;99.90
1546;DHT22;766;51.502;9.752;2023-03-14T09:36:06;10.30;99.90
1546;DHT22;766;51.502;9.752;2023-03-14T09:38:35;10.20;99.90
1546;DHT22;766;51.502;9.752;2023-03-14T09:41:13;10.20;99.90
1546;DHT22;766;51.502;9.752;2023-03-14T09:43:44;10.20;99.90
1546;DHT22;766;51.502;9.752;2023-03-14T09:46:15;10.40;99.90
1546;DHT22;766;51.502;9.752;2023-03-14T09:48:44;10.60;99.90
1546;DHT22;766;51.502;9.752;2023-03-14T09:51:15;10.50;99.90
1546;DHT22;766;51.502;9.752;2023-03-14T09:53:46;10.70;99.90
1546;DHT22;766;51.502;9.752;2023-03-14T09:56:17;10.70;99.90
1546;DHT22;766;51.502;9.752;2023-03-14T09:58:51;10.60;99.90
1546;DHT22;766;51.502;9.752;2023-03-14T10:01:24;10.60;99.90
1546;DHT22;766;51.502;9.752;2023-03-14T10:03:54;10.40;99.90
1546;DHT22;766;51.502;9.752;2023-03-14T10:06:25;10.20;99.90
1546;DHT22;766;51.502;9.752;2023-03-14T10:08:54;10.20;99.90
1546;DHT22;766;51.502;9.752;2023-03-14T10:11:24;10.10;99.90
1546;DHT22;766;51.502;9.752;2023-03-14T10:14:05;10.10;99.90
1546;DHT22;766;51.502;9.752;2023-03-14T10:16:36;10.10;99.90
1546;DHT22;766;51.502;9.752;2023-03-14T10:19:07;10.10;99.90
1546;DHT22;766;51.502;9.752;2023-03-14T10:21:37;10.10;99.90
1546;DHT22;766;51.502;9.752;2023-03-14T10:24:18;10.20;99.90
1546;DHT22;766;51.502;9.752;2023-03-14T10:26:52;10.20;99.90
1546;DHT22;766;51.502;9.752;2023-03-14T10:29:20;10.10;99.90
1546;DHT22;766;51.502;9.752;2023-03-14T10:31:53;10.00;99.90
1546;DHT22;766;51.502;9.752;2023-03-14T10:34:24;9.80;99.90
1546;DHT22;766;51.502;9.752;2023-03-14T10:36:53;9.90;99.90
1546;DHT22;766;51.502;9.752;2023-03-14T10:39:25;9.90;99.90
1546;DHT22;766;51.502;9.752;2023-03-14T10:41:55;9.80;99.90
1546;DHT22;766;51.502;9.752;2023-03-14T10:44:26;9.90;99.90
1546;DHT22;766;51.502;9.752;2023-03-14T10:46:59;9.90;99.90
1546;DHT22;766;51.502;9.752;2023-03-14T10:49:30;9.90;99.90
1546;DHT22;766;51.502;9.752;2023-03-14T10:52:02;10.10;99.90
1546;DHT22;766;51.502;9.752;2023-03-14T10:54:40;10.10;99.90
1546;DHT22;766;51.502;9.752;2023-03-14T10:57:11;10.10;99.90
1546;DHT22;766;51.502;9.752;2023-03-14T10:59:42;10.20;99.90
1546;DHT22;766;51.502;9.752;2023-03-14T11:02:31;10.20;99.90
1546;DHT22;766;51.502;9.752;2023-03-14T11:05:13;10.30;99.90
1546;DHT22;766;51.502;9.752;2023-03-14T11:07:44;10.40;99.90
1546;DHT22;766;51.502;9.752;2023-03-14T11:10:19;10.40;99.90
1546;DHT22;766;51.502;9.752;2023-03-14T11:12:59;10.60;99.90
1546;DHT22;766;51.502;9.752;2023-03-14T11:15:36;10.60;99.90
1546;DHT22;766;51.502;9.752;2023-03-14T11:18:22;10.70;99.90
1546;DHT22;766;51.502;9.752;2023-03-14T11:20:55;10.70;99.90
1546;DHT22;766;51.502;9.752;2023-03-14T11:23:27;10.90;99.90
1546;DHT22;766;51.502;9.752;2023-03-14T11:26:06;11.10;99.90
1546;DHT22;766;51.502;9.752;2023-03-14T11:28:38;11.00;99.90
1546;DHT22;766;51.502;9.752;2023-03-14T11:31:14;11.00;99.90
1546;DHT22;766;51.502;9.752;2023-03-14T11:33:54;11.10;99.90
1546;DHT22;766;51.502;9.752;2023-03-14T11:36:29;11.10;99.90
1546;DHT22;766;51.502;9.752;2023-03-14T11:38:59;11.00;99.90
1546;DHT22;766;51.502;9.752;2023-03-14T11:41:31;10.90;99.90
1546;DHT22;766;51.502;9.752;2023-03-14T11:44:04;10.90;99.90
1546;DHT22;766;51.502;9.752;2023-03-14T11:46:41;10.80;99.90
1546;DHT22;766;51.502;9.752;2023-03-14T11:49:23;10.80;99.90
1546;DHT22;766;51.502;9.752;2023-03-14T11:51:56;10.80;99.90
1546;DHT22;766;51.502;9.752;2023-03-14T11:54:35;10.60;99.90
1546;DHT22;766;51.502;9.752;2023-03-14T11:57:11;10.30;99.90
1546;DHT22;766;51.502;9.752;2023-03-14T11:59:46;10.10;99.90
1546;DHT22;766;51.502;9.752;2023-03-14T12:02:22;9.90;99.90
1546;DHT22;766;51.502;9.752;2023-03-14T12:05:22;9.80;99.90
1546;DHT22;766;51.502;9.752;2023-03-14T12:10:55;9.70;99.90
1546;DHT22;766;51.502;9.752;2023-03-14T12:13:29;9.70;99.90
1546;DHT22;766;51.502;9.752;2023-03-14T12:15:59;9.70;99.90
1546;DHT22;766;51.502;9.752;2023-03-14T12:18:31;9.60;99.90
1546;DHT22;766;51.502;9.752;2023-03-14T12:21:03;9.70;99.90
1546;DHT22;766;51.502;9.752;2023-03-14T12:23:37;9.50;99.90
1546;DHT22;766;51.502;9.752;2023-03-14T12:26:15;9.10;99.90
1546;DHT22;766;51.502;9.752;2023-03-14T12:28:49;8.70;99.90
1546;DHT22;766;51.502;9.752;2023-03-14T12:31:41;8.60;99.90
1546;DHT22;766;51.502;9.752;2023-03-14T12:34:28;8.50;99.90
1546;DHT22;766;51.502;9.752;2023-03-14T12:37:10;8.40;99.90
1546;DHT22;766;51.502;9.752;2023-03-14T12:39:47;8.40;99.90
1546;DHT22;766;51.502;9.752;2023-03-14T12:42:23;8.40;99.90
1546;DHT22;766;51.502;9.752;2023-03-14T12:45:22;8.50;99.90
1546;DHT22;766;51.502;9.752;2023-03-14T12:50:42;8.30;99.90
1546;DHT22;766;51.502;9.752;2023-03-14T12:53:47;8.20;99.90
1546;DHT22;766;51.502;9.752;2023-03-14T12:56:27;8.10;99.90
1546;DHT22;766;51.502;9.752;2023-03-14T12:59:10;8.10;99.90
1546;DHT22;766;51.502;9.752;2023-03-14T13:01:46;7.90;99.90
1546;DHT22;766;51.502;9.752;2023-03-14T13:04:15;7.80;99.90
1546;DHT22;766;51.502;9.752;2023-03-14T13:06:57;7.60;99.90
1546;DHT22;766;51.502;9.752;2023-03-14T13:09:53;7.50;99.90
1546;DHT22;766;51.502;9.752;2023-03-14T13:12:27;7.60;99.90
1546;DHT22;766;51.502;9.752;2023-03-14T13:15:00;7.40;99.90
1546;DHT22;766;51.502;9.752;2023-03-14T13:17:32;7.40;99.90
1546;DHT22;766;51.502;9.752;2023-03-14T13:20:11;7.20;99.90
1546;DHT22;766;51.502;9.752;2023-03-14T13:22:47;7.20;99.90
1546;DHT22;766;51.502;9.752;2023-03-14T13:25:20;7.10;99.90
1546;DHT22;766;51.502;9.752;2023-03-14T13:27:52;7.00;99.90
1546;DHT22;766;51.502;9.752;2023-03-14T13:30:25;6.90;99.90
1546;DHT22;766;51.502;9.752;2023-03-14T13:32:55;6.80;99.90
1546;DHT22;766;51.502;9.752;2023-03-14T13:35:26;6.80;99.90
1546;DHT22;766;51.502;9.752;2023-03-14T13:37:56;6.60;99.90
1546;DHT22;766;51.502;9.752;2023-03-14T13:40:39;6.30;99.90
1546;DHT22;766;51.502;9.752;2023-03-14T13:43:14;6.20;99.90
1546;DHT22;766;51.502;9.752;2023-03-14T13:45:51;5.90;99.90
1546;DHT22;766;51.502;9.752;2023-03-14T13:48:21;6.00;99.90
1546;DHT22;766;51.502;9.752;2023-03-14T13:50:53;5.90;99.90
1546;DHT22;766;51.502;9.752;2023-03-14T13:53:23;5.60;99.90
1546;DHT22;766;51.502;9.752;2023-03-14T13:55:53;5.40;99.90
1546;DHT22;766;51.502;9.752;2023-03-14T13:58:25;5.30;99.90
1546;DHT22;766;51.502;9.752;2023-03-14T14:01:03;5.20;99.90
1546;DHT22;766;51.502;9.752;2023-03-14T14:03:34;5.10;99.90
1546;DHT22;766;51.502;9.752;2023-03-14T14:06:06;5.10;99.90
1546;DHT22;766;51.502;9.752;2023-03-14T14:08:41;5.00;99.90
1546;DHT22;766;51.502;9.752;2023-03-14T14:11:18;5.00;99.90
1546;DHT22;766;51.502;9.752;2023-03-14T14:13:59;4.90;99.90
1546;DHT22;766;51.502;9.752;2023-03-14T14:16:31;4.90;99.90
1546;DHT22;766;51.502;9.752;2023-03-14T14:19:01;5.00;99.90
1546;DHT22;766;51.502;9.752;2023-03-14T14:21:31;5.00;99.90
1546;DHT22;766;51.502;9.752;2023-03-14T14:24:00;5.00;99.90
1546;DHT22;766;51.502;9.752;2023-03-14T14:26:31;5.20;99.90
1546;DHT22;766;51.502;9.752;2023-03-14T14:29:05;5.40;99.90
1546;DHT22;766;51.502;9.752;2023-03-14T14:31:34;5.40;99.90
1546;DHT22;766;51.502;9.752;2023-03-14T14:34:03;5.60;99.90
1546;DHT22;766;51.502;9.752;2023-03-14T14:36:37;5.30;99.90
1546;DHT22;766;51.502;9.752;2023-03-14T14:39:11;5.30;99.90
1546;DHT22;766;51.502;9.752;2023-03-14T14:41:44;5.50;99.90
1546;DHT22;766;51.502;9.752;2023-03-14T14:44:13;5.60;99.90
1546;DHT22;766;51.502;9.752;2023-03-14T14:46:42;5.70;99.90
1546;DHT22;766;51.502;9.752;2023-03-14T14:49:13;5.60;99.90
1546;DHT22;766;51.502;9.752;2023-03-14T14:51:44;5.30;99.90
1546;DHT22;766;51.502;9.752;2023-03-14T14:54:15;5.50;99.90
1546;DHT22;766;51.502;9.752;2023-03-14T14:56:50;5.70;99.90
1546;DHT22;766;51.502;9.752;2023-03-14T14:59:22;5.80;99.90
1546;DHT22;766;51.502;9.752;2023-03-14T15:01:56;5.60;99.90
1546;DHT22;766;51.502;9.752;2023-03-14T15:04:26;5.40;99.90
1546;DHT22;766;51.502;9.752;2023-03-14T15:06:54;5.20;99.90
1546;DHT22;766;51.502;9.752;2023-03-14T15:09:23;5.20;99.90
1546;DHT22;766;51.502;9.752;2023-03-14T15:11:53;5.10;99.90
1546;DHT22;766;51.502;9.752;2023-03-14T15:14:21;5.10;99.90
1546;DHT22;766;51.502;9.752;2023-03-14T15:16:50;5.00;99.90
1546;DHT22;766;51.502;9.752;2023-03-14T15:19:21;5.10;99.90
1546;DHT22;766;51.502;9.752;2023-03-14T15:21:52;5.10;99.90
1546;DHT22;766;51.502;9.752;2023-03-14T15:24:22;4.90;99.90
1546;DHT22;766;51.502;9.752;2023-03-14T15:26:55;4.90;99.90
1546;DHT22;766;51.502;9.752;2023-03-14T15:29:23;4.70;99.90
1546;DHT22;766;51.502;9.752;2023-03-14T15:31:55;4.60;99.90
1546;DHT22;766;51.502;9.752;2023-03-14T15:34:24;4.60;99.90
1546;DHT22;766;51.502;9.752;2023-03-14T15:36:52;4.60;99.90
1546;DHT22;766;51.502;9.752;2023-03-14T15:39:21;4.70;99.90
1546;DHT22;766;51.502;9.752;2023-03-14T15:41:49;4.80;99.90
1546;DHT22;766;51.502;9.752;2023-03-14T15:44:19;5.10;99.90
1546;DHT22;766;51.502;9.752;2023-03-14T15:46:48;5.00;99.90
1546;DHT22;766;51.502;9.752;2023-03-14T15:49:17;5.30;99.90
1546;DHT22;766;51.502;9.752;2023-03-14T15:51:45;5.40;99.90
1546;DHT22;766;51.502;9.752;2023-03-14T15:54:14;5.50;99.90
1546;DHT22;766;51.502;9.752;2023-03-14T15:56:42;5.50;99.90
1546;DHT22;766;51.502;9.752;2023-03-14T15:59:11;5.40;99.90
1546;DHT22;766;51.502;9.752;2023-03-14T16:01:40;5.30;99.90
1546;DHT22;766;51.502;9.752;2023-03-14T16:04:09;5.40;99.90
1546;DHT22;766;51.502;9.752;2023-03-14T16:06:37;5.40;99.90
1546;DHT22;766;51.502;9.752;2023-03-14T16:09:05;5.40;99.90
1546;DHT22;766;51.502;9.752;2023-03-14T16:11:37;5.20;99.90
1546;DHT22;766;51.502;9.752;2023-03-14T16:14:06;5.30;99.90
1546;DHT22;766;51.502;9.752;2023-03-14T16:16:34;5.20;99.90
1546;DHT22;766;51.502;9.752;2023-03-14T16:19:06;5.10;99.90
1546;DHT22;766;51.502;9.752;2023-03-14T16:21:35;5.00;99.90
1546;DHT22;766;51.502;9.752;2023-03-14T16:24:04;4.90;99.90
1546;DHT22;766;51.502;9.752;2023-03-14T16:26:33;4.70;99.90
1546;DHT22;766;51.502;9.752;2023-03-14T16:29:03;4.80;99.90
1546;DHT22;766;51.502;9.752;2023-03-14T16:31:31;4.60;99.90
1546;DHT22;766;51.502;9.752;2023-03-14T16:34:01;4.70;99.90
1546;DHT22;766;51.502;9.752;2023-03-14T16:36:32;4.70;99.90
1546;DHT22;766;51.502;9.752;2023-03-14T16:39:00;4.70;99.90
1546;DHT22;766;51.502;9.752;2023-03-14T16:41:28;4.70;99.90
1546;DHT22;766;51.502;9.752;2023-03-14T16:43:57;4.70;99.90
1546;DHT22;766;51.502;9.752;2023-03-14T16:46:26;4.70;99.90
1546;DHT22;766;51.502;9.752;2023-03-14T16:48:59;4.60;99.90
1546;DHT22;766;51.502;9.752;2023-03-14T16:51:27;4.70;99.90
1546;DHT22;766;51.502;9.752;2023-03-14T16:53:57;4.70;99.90
1546;DHT22;766;51.502;9.752;2023-03-14T16:56:27;4.50;99.90
1546;DHT22;766;51.502;9.752;2023-03-14T16:58:55;4.30;99.90
1546;DHT22;766;51.502;9.752;2023-03-14T17:01:24;4.30;99.90
1546;DHT22;766;51.502;9.752;2023-03-14T17:03:52;4.50;99.90